createdAt,value
2022-11-08T00:01:42.476Z,8.95
2022-11-08T00:04:13.310Z,9.68
2022-11-08T00:07:01.051Z,8.30
2022-11-08T00:09:49.142Z,8.63
2022-11-08T00:12:36.499Z,10.57
2022-11-08T00:15:06.890Z,7.85
2022-11-08T00:17:36.187Z,9.48
2022-11-08T00:20:06.142Z,10.65
2022-11-08T00:25:05.980Z,9.65
2022-11-08T00:27:35.371Z,9.73
2022-11-08T00:30:05.137Z,8.55
2022-11-08T00:32:34.409Z,10.10
2022-11-08T00:35:03.420Z,8.88
2022-11-08T00:37:32.724Z,7.90
2022-11-08T00:40:01.738Z,8.30
2022-11-08T00:42:32.370Z,11.73
2022-11-08T00:47:30.430Z,7.25
2022-11-08T00:49:59.418Z,12.32
2022-11-08T00:52:28.687Z,7.13
2022-11-08T00:54:57.708Z,8.93
2022-11-08T00:57:41.095Z,8.63
2022-11-08T01:00:18.249Z,9.93
2022-11-08T01:02:47.529Z,11.93
2022-11-08T01:05:16.872Z,12.18
2022-11-08T01:07:46.114Z,8.75
2022-11-08T01:10:15.104Z,11.88
2022-11-08T01:12:44.406Z,8.23
2022-11-08T01:15:13.450Z,8.80
2022-11-08T01:17:44.100Z,10.63
2022-11-08T01:22:42.936Z,10.07
2022-11-08T01:25:11.948Z,6.82
2022-11-08T01:27:42.572Z,10.80
2022-11-08T01:32:41.316Z,8.15
2022-11-08T01:35:11.885Z,11.55
2022-11-08T01:37:41.117Z,10.00
2022-11-08T01:40:11.399Z,9.70
2022-11-08T01:42:40.666Z,10.38
2022-11-08T01:45:11.819Z,8.88
2022-11-08T01:47:41.067Z,9.35
2022-11-08T01:50:14.969Z,12.50
2022-11-08T01:52:47.265Z,10.52
2022-11-08T01:55:20.683Z,9.85
2022-11-08T01:57:54.879Z,11.40
2022-11-08T02:00:26.302Z,13.27
2022-11-08T02:02:58.980Z,11.52
2022-11-08T02:05:31.122Z,9.20
2022-11-08T02:08:04.491Z,12.63
2022-11-08T02:10:36.710Z,10.43
2022-11-08T02:13:14.213Z,10.20
2022-11-08T02:15:44.020Z,12.07
2022-11-08T02:18:14.506Z,11.43
2022-11-08T02:20:52.958Z,8.65
2022-11-08T02:23:27.944Z,10.23
2022-11-08T02:25:58.394Z,12.00
2022-11-08T02:28:27.633Z,9.88
2022-11-08T02:30:56.604Z,11.60
2022-11-08T02:33:25.997Z,13.32
2022-11-08T02:35:57.676Z,10.43
2022-11-08T02:38:28.321Z,10.93
2022-11-08T02:41:00.379Z,12.52
2022-11-08T02:43:29.678Z,10.93
2022-11-08T02:46:00.055Z,9.25
2022-11-08T02:48:29.870Z,11.55
2022-11-08T02:50:58.908Z,16.42
2022-11-08T02:53:28.254Z,13.67
2022-11-08T02:55:58.659Z,12.32
2022-11-08T02:58:28.397Z,9.68
2022-11-08T03:00:57.535Z,12.15
2022-11-08T03:03:26.834Z,11.73
2022-11-08T03:05:57.260Z,11.98
2022-11-08T03:08:26.695Z,10.82
2022-11-08T03:10:55.891Z,9.37
2022-11-08T03:13:26.545Z,9.32
2022-11-08T03:15:55.516Z,10.65
2022-11-08T03:18:24.792Z,11.32
2022-11-08T03:20:53.698Z,13.00
2022-11-08T03:23:23.087Z,9.60
2022-11-08T03:25:52.096Z,11.25
2022-11-08T03:28:23.160Z,13.30
2022-11-08T03:30:54.321Z,9.82
2022-11-08T03:33:23.819Z,10.65
2022-11-08T03:35:53.253Z,12.63
2022-11-08T03:38:22.934Z,8.98
2022-11-08T03:40:51.878Z,13.23
2022-11-08T03:43:21.184Z,7.05
2022-11-08T03:45:50.183Z,15.20
2022-11-08T03:48:21.125Z,8.60
2022-11-08T03:50:50.232Z,10.52
2022-11-08T03:53:19.564Z,10.57
2022-11-08T03:55:48.514Z,12.35
2022-11-08T03:58:17.997Z,11.48
2022-11-08T04:00:47.119Z,11.47
2022-11-08T04:03:16.422Z,9.45
2022-11-08T04:05:46.793Z,11.98
2022-11-08T04:08:16.457Z,11.65
2022-11-08T04:10:45.642Z,9.05
2022-11-08T04:13:32.354Z,14.80
2022-11-08T04:16:01.410Z,8.50
2022-11-08T04:18:48.048Z,12.20
2022-11-08T04:21:21.841Z,10.50
2022-11-08T04:23:52.678Z,11.43
2022-11-08T04:26:22.636Z,11.88
2022-11-08T04:31:21.450Z,8.98
2022-11-08T04:36:21.182Z,10.32
2022-11-08T04:38:51.198Z,9.88
2022-11-08T04:41:22.128Z,11.43
2022-11-08T04:43:52.368Z,10.40
2022-11-08T04:46:23.236Z,8.75
2022-11-08T04:48:53.899Z,10.40
2022-11-08T04:51:26.811Z,11.75
2022-11-08T04:53:57.538Z,11.95
2022-11-08T04:56:28.043Z,10.95
2022-11-08T04:58:59.616Z,11.50
2022-11-08T05:01:31.944Z,7.32
2022-11-08T05:04:01.487Z,9.18
2022-11-08T05:06:33.179Z,11.02
2022-11-08T05:09:02.636Z,12.90
2022-11-08T05:11:32.740Z,9.10
2022-11-08T05:14:02.057Z,9.88
2022-11-08T05:16:33.164Z,10.00
2022-11-08T05:19:03.193Z,8.45
2022-11-08T05:21:51.055Z,11.88
2022-11-08T05:24:20.389Z,8.60
2022-11-08T05:26:50.218Z,10.65
2022-11-08T05:29:19.438Z,8.70
2022-11-08T05:31:48.435Z,8.02
2022-11-08T05:34:17.747Z,9.90
2022-11-08T05:36:48.121Z,7.90
2022-11-08T05:39:17.423Z,11.73
2022-11-08T05:41:46.465Z,8.82
2022-11-08T05:44:15.877Z,7.17
2022-11-08T05:46:44.865Z,9.63
2022-11-08T05:49:14.161Z,11.10
2022-11-08T05:51:43.157Z,10.40
2022-11-08T05:54:14.141Z,12.43
2022-11-08T05:56:43.185Z,9.00
2022-11-08T05:59:12.517Z,8.00
2022-11-08T06:01:41.550Z,9.40
2022-11-08T06:04:10.888Z,9.80
2022-11-08T06:06:39.875Z,10.45
2022-11-08T06:09:09.358Z,9.13
2022-11-08T06:11:39.772Z,9.90
2022-11-08T06:14:09.000Z,8.27
2022-11-08T06:16:38.094Z,9.38
2022-11-08T06:19:07.596Z,10.02
2022-11-08T06:21:36.552Z,10.20
2022-11-08T06:24:06.600Z,7.65
2022-11-08T06:26:35.621Z,10.25
2022-11-08T06:29:06.308Z,8.48
2022-11-08T06:31:39.317Z,8.15
2022-11-08T06:34:12.287Z,9.05
2022-11-08T06:36:41.304Z,13.73
2022-11-08T06:39:10.647Z,6.83
2022-11-08T06:41:39.750Z,7.72
2022-11-08T06:44:10.381Z,10.27
2022-11-08T06:49:08.544Z,6.80
2022-11-08T06:51:38.450Z,7.78
2022-11-08T06:54:08.816Z,6.78
2022-11-08T06:56:38.388Z,9.55
2022-11-08T06:59:09.788Z,11.30
2022-11-08T07:01:43.230Z,11.43
2022-11-08T07:04:16.901Z,9.95
2022-11-08T07:06:45.872Z,11.18
2022-11-08T07:09:15.142Z,6.90
2022-11-08T07:11:44.071Z,5.57
2022-11-08T07:14:14.700Z,7.05
2022-11-08T07:16:43.638Z,10.15
2022-11-08T07:19:12.902Z,9.30
2022-11-08T07:21:41.865Z,8.80
2022-11-08T07:24:11.319Z,8.80
2022-11-08T07:26:40.267Z,5.97
2022-11-08T07:29:15.633Z,11.98
2022-11-08T07:31:47.204Z,13.73
2022-11-08T07:34:17.595Z,17.23
2022-11-08T07:36:46.676Z,15.95
2022-11-08T07:39:15.901Z,13.90
2022-11-08T07:41:44.958Z,10.85
2022-11-08T07:44:14.905Z,7.82
2022-11-08T07:46:45.333Z,10.25
2022-11-08T07:49:14.549Z,9.50
2022-11-08T07:51:43.507Z,9.68
2022-11-08T07:54:12.722Z,8.05
2022-11-08T07:56:41.743Z,15.05
2022-11-08T07:59:11.015Z,16.90
2022-11-08T08:01:40.214Z,8.27
2022-11-08T08:04:12.508Z,8.48
2022-11-08T08:06:41.519Z,9.63
2022-11-08T08:09:10.876Z,8.00
2022-11-08T08:11:39.868Z,10.15
2022-11-08T08:14:09.251Z,13.13
2022-11-08T08:16:38.212Z,8.50
2022-11-08T08:19:07.898Z,7.75
2022-11-08T08:21:38.252Z,9.37
2022-11-08T08:24:07.977Z,13.60
2022-11-08T08:26:37.080Z,7.55
2022-11-08T08:29:06.382Z,10.25
2022-11-08T08:31:35.325Z,9.68
2022-11-08T08:34:04.718Z,9.95
2022-11-08T08:36:33.646Z,9.93
2022-11-08T08:39:04.339Z,8.43
2022-11-08T08:41:33.275Z,8.18
2022-11-08T08:44:02.579Z,8.07
2022-11-08T08:46:31.513Z,8.30
2022-11-08T08:49:00.754Z,7.80
2022-11-08T08:51:29.688Z,10.38
2022-11-08T08:54:00.176Z,11.93
2022-11-08T09:01:49.228Z,10.40
2022-11-08T09:04:18.508Z,13.07
2022-11-08T09:06:47.647Z,9.75
2022-11-08T09:09:17.058Z,9.07
2022-11-08T09:11:47.389Z,10.00
2022-11-08T09:14:16.690Z,11.05
2022-11-08T09:16:45.633Z,10.50
2022-11-08T09:19:14.860Z,10.23
2022-11-08T09:21:43.894Z,9.07
2022-11-08T09:24:13.151Z,10.20
2022-11-08T09:26:42.108Z,10.18
2022-11-08T09:29:12.739Z,10.57
2022-11-08T09:31:41.703Z,9.27
2022-11-08T09:34:11.000Z,14.17
2022-11-08T09:36:40.024Z,13.00
2022-11-08T09:39:09.279Z,9.57
2022-11-08T09:41:57.605Z,12.43
2022-11-08T09:44:48.952Z,7.93
2022-11-08T09:47:24.060Z,10.70
2022-11-08T09:50:03.975Z,13.93
2022-11-08T09:52:34.974Z,12.80
2022-11-08T09:55:17.132Z,8.18
2022-11-08T09:57:57.652Z,9.25
2022-11-08T10:00:29.285Z,11.50
2022-11-08T10:02:59.132Z,9.13
2022-11-08T10:05:35.410Z,10.73
2022-11-08T10:08:12.323Z,7.85
2022-11-08T10:10:57.235Z,9.93
2022-11-08T10:13:39.230Z,7.25
2022-11-08T10:16:19.181Z,10.95
2022-11-08T10:19:18.029Z,12.18
2022-11-08T10:22:00.626Z,10.25
2022-11-08T10:24:38.981Z,8.23
2022-11-08T10:27:17.480Z,8.55
2022-11-08T10:29:47.389Z,12.80
2022-11-08T10:34:55.976Z,8.13
2022-11-08T10:37:26.449Z,9.90
2022-11-08T10:42:39.817Z,7.35
2022-11-08T10:45:11.651Z,5.82
2022-11-08T10:47:45.657Z,8.35
2022-11-08T10:50:16.854Z,9.27
2022-11-08T10:52:49.177Z,6.63
2022-11-08T10:55:31.021Z,7.25
2022-11-08T10:58:00.604Z,10.85
2022-11-08T11:00:31.970Z,8.07
2022-11-08T11:03:19.421Z,9.63
2022-11-08T11:05:59.877Z,6.95
2022-11-08T11:08:29.449Z,5.07
2022-11-08T11:11:14.417Z,4.63
2022-11-08T11:13:43.642Z,8.23
2022-11-08T11:16:15.971Z,7.18
2022-11-08T11:18:51.531Z,7.10
2022-11-08T11:21:23.055Z,9.20
2022-11-08T11:23:54.213Z,8.95
2022-11-08T11:26:32.165Z,5.90
2022-11-08T11:29:14.588Z,8.80
2022-11-08T11:31:45.560Z,7.47
2022-11-08T11:34:45.227Z,6.63
2022-11-08T11:37:37.528Z,6.77
2022-11-08T11:40:20.266Z,8.40
2022-11-08T11:42:57.827Z,10.20
2022-11-08T11:45:33.306Z,10.15
2022-11-08T11:48:06.220Z,9.43
2022-11-08T11:50:38.878Z,9.90
2022-11-08T11:53:16.533Z,7.15
2022-11-08T11:56:27.539Z,9.40
2022-11-08T11:59:27.741Z,6.60
2022-11-08T12:02:23.531Z,8.25
2022-11-08T12:05:14.333Z,10.00
2022-11-08T12:07:51.067Z,8.98
2022-11-08T12:10:29.859Z,8.50
2022-11-08T12:13:05.658Z,8.68
2022-11-08T12:15:44.623Z,6.07
2022-11-08T12:18:44.673Z,7.00
2022-11-08T12:21:16.049Z,9.48
2022-11-08T12:24:17.372Z,7.38
2022-11-08T12:26:55.607Z,6.47
2022-11-08T12:29:27.983Z,7.07
2022-11-08T12:32:18.284Z,9.30
2022-11-08T12:35:00.182Z,9.02
2022-11-08T12:37:43.548Z,8.63
2022-11-08T12:40:23.185Z,10.45
2022-11-08T12:43:12.144Z,9.50
2022-11-08T12:45:58.335Z,8.90
2022-11-08T12:48:48.470Z,8.27
2022-11-08T12:51:26.947Z,8.95
2022-11-08T12:54:20.741Z,6.80
2022-11-08T12:56:53.763Z,8.40
2022-11-08T12:59:27.104Z,8.73
2022-11-08T13:01:57.975Z,11.23
2022-11-08T13:04:37.127Z,8.38
2022-11-08T13:07:22.729Z,10.40
2022-11-08T13:09:59.228Z,8.35
2022-11-08T13:12:41.373Z,8.07
2022-11-08T13:15:19.068Z,12.88
2022-11-08T13:18:22.016Z,6.65
2022-11-08T13:20:51.478Z,8.38
2022-11-08T13:23:30.669Z,8.43
2022-11-08T13:26:18.828Z,10.93
2022-11-08T13:28:50.464Z,7.50
2022-11-08T13:31:43.061Z,8.18
2022-11-08T13:34:42.154Z,5.72
2022-11-08T13:37:33.640Z,8.40
2022-11-08T13:40:17.643Z,9.02
2022-11-08T13:43:20.605Z,9.55
2022-11-08T13:45:52.188Z,8.60
2022-11-08T13:48:37.830Z,9.70
2022-11-08T13:51:27.326Z,11.27
2022-11-08T13:54:00.968Z,7.05
2022-11-08T13:56:51.546Z,12.25
2022-11-08T14:02:38.270Z,9.75
2022-11-08T14:05:45.914Z,9.90
2022-11-08T14:08:22.329Z,9.98
2022-11-08T14:11:20.249Z,13.38
2022-11-08T14:14:11.539Z,9.40
2022-11-08T14:16:49.993Z,7.30
2022-11-08T14:19:23.863Z,9.98
2022-11-08T14:21:55.236Z,8.77
2022-11-08T14:24:37.119Z,8.50
2022-11-08T14:27:06.589Z,11.48
2022-11-08T14:29:35.608Z,6.53
2022-11-08T14:32:07.724Z,7.00
2022-11-08T14:34:38.997Z,6.45
2022-11-08T14:37:20.211Z,8.60
2022-11-08T14:39:51.694Z,7.18
2022-11-08T14:42:24.789Z,8.50
2022-11-08T14:44:56.239Z,6.78
2022-11-08T14:47:28.589Z,7.72
2022-11-08T14:49:57.612Z,5.53
2022-11-08T14:52:29.958Z,8.77
2022-11-08T14:55:07.014Z,9.82
2022-11-08T14:57:38.348Z,10.63
2022-11-08T15:00:15.985Z,8.98
2022-11-08T15:02:48.297Z,9.05
2022-11-08T15:05:33.227Z,9.10
2022-11-08T15:08:06.157Z,6.50
2022-11-08T15:10:36.975Z,10.57
2022-11-08T15:13:06.451Z,9.88
2022-11-08T15:15:36.177Z,8.82
2022-11-08T15:18:15.123Z,9.30
2022-11-08T15:20:56.189Z,9.85
2022-11-08T15:23:40.708Z,9.77
2022-11-08T15:26:21.630Z,11.48
2022-11-08T15:29:03.258Z,14.48
2022-11-08T15:31:37.678Z,13.43
2022-11-08T15:34:07.350Z,15.57
2022-11-08T15:36:38.182Z,14.43
2022-11-08T15:39:11.751Z,12.88
2022-11-08T15:41:43.259Z,10.32
2022-11-08T15:44:19.216Z,12.98
2022-11-08T15:46:48.350Z,10.10
2022-11-08T15:49:20.941Z,11.00
2022-11-08T15:51:51.055Z,13.20
2022-11-08T15:54:21.558Z,9.38
2022-11-08T15:59:25.868Z,9.30
2022-11-08T16:01:57.534Z,14.90
2022-11-08T16:04:28.412Z,15.80
2022-11-08T16:06:57.590Z,14.85
2022-11-08T16:09:26.964Z,14.95
2022-11-08T16:11:57.475Z,14.75
2022-11-08T16:14:27.065Z,14.93
2022-11-08T16:16:56.091Z,13.97
2022-11-08T16:19:26.412Z,13.73
2022-11-08T16:21:55.487Z,13.60
2022-11-08T16:24:24.782Z,15.30
2022-11-08T16:26:53.886Z,13.45
2022-11-08T16:29:25.649Z,16.58
2022-11-08T16:31:54.699Z,16.02
2022-11-08T16:34:24.141Z,14.57
2022-11-08T16:36:54.674Z,21.17
2022-11-08T16:39:27.367Z,17.90
2022-11-08T16:41:56.296Z,23.52
2022-11-08T16:44:26.914Z,23.33
2022-11-08T16:46:55.861Z,15.52
2022-11-08T16:49:27.090Z,18.87
2022-11-08T16:51:56.032Z,21.25
2022-11-08T16:54:28.436Z,18.45
2022-11-08T16:57:20.636Z,16.48
2022-11-08T16:59:48.260Z,14.70
2022-11-08T17:02:22.326Z,14.73
2022-11-08T17:04:51.566Z,13.07
2022-11-08T17:07:20.526Z,12.57
2022-11-08T17:09:49.781Z,14.47
2022-11-08T17:12:18.728Z,13.95
2022-11-08T17:14:49.495Z,16.83
2022-11-08T17:17:18.426Z,12.45
2022-11-08T17:19:47.634Z,14.05
2022-11-08T17:22:16.556Z,14.63
2022-11-08T17:24:45.819Z,13.68
2022-11-08T17:27:15.562Z,15.10
2022-11-08T17:29:44.799Z,11.90
2022-11-08T17:32:15.151Z,15.20
2022-11-08T17:34:44.372Z,14.38
2022-11-08T17:37:13.314Z,17.63
2022-11-08T17:39:42.539Z,16.27
2022-11-08T17:42:11.485Z,17.23
2022-11-08T17:44:40.735Z,16.38
2022-11-08T17:47:09.670Z,17.73
2022-11-08T17:49:43.861Z,16.15
2022-11-08T17:52:13.119Z,16.70
2022-11-08T17:54:43.215Z,16.10
2022-11-08T17:57:12.206Z,16.30
2022-11-08T17:59:41.484Z,12.88
2022-11-08T18:02:11.920Z,14.70
2022-11-08T18:04:42.651Z,16.25
2022-11-08T18:07:11.634Z,14.40
2022-11-08T18:09:40.908Z,14.87
2022-11-08T18:12:09.928Z,15.80
2022-11-08T18:14:39.166Z,17.60
2022-11-08T18:17:08.094Z,16.20
2022-11-08T18:19:37.326Z,15.88
2022-11-08T18:22:07.654Z,17.90
2022-11-08T18:24:36.944Z,18.17
2022-11-08T18:27:05.891Z,19.83
2022-11-08T18:29:35.154Z,21.45
2022-11-08T18:32:04.110Z,15.88
2022-11-08T18:34:33.459Z,17.95
2022-11-08T18:37:02.460Z,13.70
2022-11-08T18:39:33.072Z,19.63
2022-11-08T18:44:31.035Z,19.92
2022-11-08T18:47:00.035Z,19.60
2022-11-08T18:51:58.883Z,15.23
2022-11-08T18:54:28.198Z,16.13
2022-11-08T18:56:58.592Z,23.40
2022-11-08T18:59:27.871Z,20.52
2022-11-08T19:01:56.847Z,16.27
2022-11-08T19:04:26.258Z,17.90
2022-11-08T19:06:55.458Z,14.13
2022-11-08T19:09:25.764Z,17.38
2022-11-08T19:11:54.851Z,20.38
2022-11-08T19:14:25.903Z,16.88
2022-11-08T19:16:56.179Z,21.52
2022-11-08T19:19:25.710Z,26.67
2022-11-08T19:21:54.649Z,26.52
2022-11-08T19:24:24.118Z,16.70
2022-11-08T19:26:53.059Z,17.08
2022-11-08T19:29:22.590Z,21.77
2022-11-08T19:31:53.419Z,19.77
2022-11-08T19:34:22.795Z,24.02
2022-11-08T19:36:55.839Z,19.58
2022-11-08T19:39:25.547Z,20.70
2022-11-08T19:41:54.474Z,19.02
2022-11-08T19:44:23.951Z,24.88
2022-11-08T19:46:54.544Z,19.35
2022-11-08T19:49:26.311Z,20.55
2022-11-08T19:51:55.688Z,22.20
2022-11-08T19:54:25.267Z,21.90
2022-11-08T19:57:10.537Z,20.87
2022-11-08T19:59:40.386Z,17.92
2022-11-08T20:02:11.073Z,18.95
2022-11-08T20:04:41.136Z,20.58
2022-11-08T20:07:10.220Z,17.00
2022-11-08T20:09:39.493Z,19.92
2022-11-08T20:12:08.712Z,21.50
2022-11-08T20:14:40.443Z,19.55
2022-11-08T20:17:13.271Z,20.85
2022-11-08T20:19:42.517Z,20.67
2022-11-08T20:22:12.179Z,22.42
2022-11-08T20:24:41.418Z,20.17
2022-11-08T20:27:10.339Z,21.25
2022-11-08T20:29:39.579Z,21.65
2022-11-08T20:32:11.448Z,20.13
2022-11-08T20:34:41.309Z,21.25
2022-11-08T20:37:14.353Z,20.20
2022-11-08T20:39:43.583Z,22.27
2022-11-08T20:42:12.622Z,23.42
2022-11-08T20:44:42.237Z,19.95
2022-11-08T20:47:12.630Z,22.50
2022-11-08T20:49:41.898Z,24.15
2022-11-08T20:52:12.025Z,22.65
2022-11-08T20:54:43.900Z,21.38
2022-11-08T20:57:13.011Z,23.08
2022-11-08T20:59:42.332Z,20.73
2022-11-08T21:02:13.851Z,24.73
2022-11-08T21:04:43.482Z,22.00
2022-11-08T21:08:01.315Z,24.53
2022-11-08T21:10:35.168Z,20.95
2022-11-08T21:12:50.841Z,24.02
2022-11-08T21:15:25.800Z,21.58
2022-11-08T21:17:57.368Z,24.25
2022-11-08T21:20:26.918Z,22.20
2022-11-08T21:22:56.035Z,26.48
2022-11-08T21:25:25.474Z,24.13
2022-11-08T21:27:54.594Z,23.20
2022-11-08T21:30:23.990Z,22.85
2022-11-08T21:32:53.166Z,24.50
2022-11-08T21:35:24.231Z,30.27
2022-11-08T21:37:53.344Z,26.17
2022-11-08T21:40:22.784Z,25.77
2022-11-08T21:42:52.071Z,21.23
2022-11-08T21:45:21.498Z,22.63
2022-11-08T21:47:54.392Z,24.40
2022-11-08T21:50:25.306Z,22.25
2022-11-08T21:52:54.707Z,25.00
2022-11-08T21:55:24.129Z,21.83
2022-11-08T21:57:53.321Z,23.15
2022-11-08T22:00:23.161Z,22.70
2022-11-08T22:02:52.295Z,20.33
2022-11-08T22:05:22.000Z,22.07
2022-11-08T22:07:52.583Z,21.93
2022-11-08T22:10:22.155Z,26.00
2022-11-08T22:12:51.414Z,24.92
2022-11-08T22:15:20.980Z,21.73
2022-11-08T22:18:14.289Z,20.63
2022-11-08T22:20:59.504Z,26.98
2022-11-08T22:23:30.031Z,23.80
2022-11-08T23:25:43.699Z,17.95
2022-11-08T23:28:44.668Z,16.48
2022-11-08T23:31:30.758Z,16.15
2022-11-08T23:34:00.367Z,19.77
2022-11-08T23:36:29.675Z,17.83
2022-11-08T23:39:00.104Z,16.40
2022-11-08T23:41:48.062Z,16.50
2022-11-08T23:44:27.549Z,16.83
2022-11-08T23:46:58.366Z,19.17
2022-11-08T23:49:28.081Z,18.05
2022-11-08T23:51:57.259Z,17.45
2022-11-08T23:54:26.495Z,17.75
2022-11-08T23:56:56.809Z,18.98
2022-11-08T23:59:26.042Z,13.68
